Time;durP1;ratioP1;P1;durP2;ratioP2;P2;SDS_P1;SDS_P2;PMS_P1;PMS_P2;Temp;Humidity;BMP_temperature;BMP_pressure;BME280_temperature;BME280_humidity;BME280_pressure;Samples;Min_cycle;Max_cycle;Signal;HPM_P1;HPM_P2
2023/08/28 00:01:21;;;;;;;6.75;4.28;;;;;;;;;;5054702;28;20056;-77
2023/08/28 00:03:47;;;;;;;8.80;4.40;;;;;;;;;;5056626;28;20061;-77
2023/08/28 00:06:14;;;;;;;8.10;4.15;;;;;;;;;;5041551;28;20175;-77
2023/08/28 00:08:41;;;;;;;7.15;4.47;;;;;;;;;;5050533;28;20425;-77
2023/08/28 00:11:07;;;;;;;7.30;4.85;;;;;;;;;;5055075;28;20040;-78
2023/08/28 00:13:33;;;;;;;8.40;4.78;;;;;;;;;;5054200;28;20037;-77
2023/08/28 00:15:59;;;;;;;8.63;4.35;;;;;;;;;;5058525;28;20445;-77
2023/08/28 00:18:25;;;;;;;9.23;4.20;;;;;;;;;;5060939;28;20045;-77
2023/08/28 00:20:52;;;;;;;10.23;5.13;;;;;;;;;;5040542;28;20056;-77
2023/08/28 00:23:18;;;;;;;11.13;5.32;;;;;;;;;;5073971;28;20123;-77
2023/08/28 00:25:44;;;;;;;8.82;4.72;;;;;;;;;;5073023;28;20490;-77
2023/08/28 00:28:11;;;;;;;8.82;5.53;;;;;;;;;;5059079;28;20044;-77
2023/08/28 00:30:37;;;;;;;9.20;5.35;;;;;;;;;;5054209;28;20094;-77
2023/08/28 00:33:03;;;;;;;8.35;5.78;;;;;;;;;;5058460;28;20562;-77
2023/08/28 00:35:29;;;;;;;9.20;5.30;;;;;;;;;;5066279;28;20056;-77
2023/08/28 00:37:55;;;;;;;15.52;5.72;;;;;;;;;;5059813;28;20041;-77
2023/08/28 00:40:21;;;;;;;6.80;5.18;;;;;;;;;;5052843;28;20045;-77
2023/08/28 00:42:48;;;;;;;10.07;5.70;;;;;;;;;;5061180;28;20174;-77
2023/08/28 00:45:14;;;;;;;12.10;6.63;;;;;;;;;;5068209;28;20494;-77
2023/08/28 00:47:40;;;;;;;8.02;6.25;;;;;;;;;;5055579;28;20053;-77
2023/08/28 00:50:07;;;;;;;10.07;6.65;;;;;;;;;;5034845;28;20044;-77
2023/08/28 00:52:33;;;;;;;11.45;6.10;;;;;;;;;;5066214;28;20086;-77
2023/08/28 00:54:59;;;;;;;7.60;5.78;;;;;;;;;;5044410;28;20041;-77
2023/08/28 00:57:25;;;;;;;11.00;5.90;;;;;;;;;;5062609;28;20046;-77
2023/08/28 00:59:52;;;;;;;12.57;6.63;;;;;;;;;;5040421;28;20072;-77
2023/08/28 01:02:18;;;;;;;10.45;6.25;;;;;;;;;;5031214;28;20057;-77
2023/08/28 01:04:44;;;;;;;9.60;5.80;;;;;;;;;;5055751;28;20052;-77
2023/08/28 01:07:16;;;;;;;9.95;6.78;;;;;;;;;;5046137;28;20118;-77
2023/08/28 01:10:01;;;;;;;10.45;6.68;;;;;;;;;;5045652;28;20049;-77
2023/08/28 01:12:46;;;;;;;8.75;6.40;;;;;;;;;;5049533;28;20040;-78
2023/08/28 01:15:16;;;;;;;11.18;6.40;;;;;;;;;;5042207;28;20576;-78
2023/08/28 01:17:43;;;;;;;9.05;7.20;;;;;;;;;;5038035;28;20046;-77
2023/08/28 01:20:13;;;;;;;11.27;6.72;;;;;;;;;;5067398;28;20040;-77
2023/08/28 01:22:43;;;;;;;10.75;6.78;;;;;;;;;;5053270;28;20487;-77
2023/08/28 01:25:10;;;;;;;13.20;6.97;;;;;;;;;;5057776;28;20053;-77
2023/08/28 01:27:37;;;;;;;9.88;7.50;;;;;;;;;;5053677;28;20045;-77
2023/08/28 01:30:07;;;;;;;11.45;6.15;;;;;;;;;;5054660;28;20052;-77
2023/08/28 01:32:33;;;;;;;8.75;6.47;;;;;;;;;;5055650;28;20437;-77
2023/08/28 01:35:01;;;;;;;8.55;6.25;;;;;;;;;;5053507;28;20120;-77
2023/08/28 01:37:31;;;;;;;8.70;6.70;;;;;;;;;;5063328;28;20044;-77
2023/08/28 01:39:58;;;;;;;8.43;6.38;;;;;;;;;;5051849;28;20487;-77
2023/08/28 01:42:24;;;;;;;9.98;6.63;;;;;;;;;;5052222;28;20068;-77
2023/08/28 01:44:54;;;;;;;9.38;6.03;;;;;;;;;;5057862;28;20056;-76
2023/08/28 01:47:22;;;;;;;10.48;7.03;;;;;;;;;;5071320;28;20044;-77
2023/08/28 01:49:48;;;;;;;12.07;6.32;;;;;;;;;;5054124;28;20049;-77
2023/08/28 01:52:14;;;;;;;10.43;5.78;;;;;;;;;;5051797;28;20049;-77
2023/08/28 01:54:40;;;;;;;11.35;6.30;;;;;;;;;;5043482;28;20044;-77
2023/08/28 01:57:06;;;;;;;10.90;7.47;;;;;;;;;;5039606;28;20042;-77
2023/08/28 01:59:32;;;;;;;11.57;6.00;;;;;;;;;;5027550;28;20048;-77
2023/08/28 02:01:58;;;;;;;9.57;6.47;;;;;;;;;;5064551;28;20044;-77
2023/08/28 02:04:24;;;;;;;10.10;7.90;;;;;;;;;;5056399;28;20044;-77
2023/08/28 02:06:50;;;;;;;10.75;7.35;;;;;;;;;;5057718;28;20048;-77
2023/08/28 02:09:16;;;;;;;10.98;6.95;;;;;;;;;;5055925;28;20056;-77
2023/08/28 02:11:44;;;;;;;9.32;7.80;;;;;;;;;;5060602;28;20037;-77
2023/08/28 02:14:10;;;;;;;10.45;6.97;;;;;;;;;;5041185;28;20037;-78
2023/08/28 02:16:38;;;;;;;10.68;7.20;;;;;;;;;;5058274;28;20045;-77
2023/08/28 02:19:04;;;;;;;10.10;7.22;;;;;;;;;;5052241;28;20041;-77
2023/08/28 02:21:30;;;;;;;13.13;8.18;;;;;;;;;;5055627;28;20108;-77
2023/08/28 02:23:57;;;;;;;9.43;7.65;;;;;;;;;;5061827;28;20037;-77
2023/08/28 02:26:24;;;;;;;8.75;6.50;;;;;;;;;;5075723;28;20482;-77
2023/08/28 02:28:50;;;;;;;11.77;8.55;;;;;;;;;;5065649;28;20084;-77
2023/08/28 02:31:16;;;;;;;13.35;8.80;;;;;;;;;;5055576;28;20041;-77
2023/08/28 02:33:42;;;;;;;10.95;7.43;;;;;;;;;;5056041;28;20041;-77
2023/08/28 02:36:08;;;;;;;10.07;8.20;;;;;;;;;;5066492;28;20059;-77
2023/08/28 02:38:34;;;;;;;11.32;8.35;;;;;;;;;;5076358;28;20052;-77
2023/08/28 02:41:04;;;;;;;11.30;8.85;;;;;;;;;;5058911;28;20509;-77
2023/08/28 02:43:30;;;;;;;15.30;8.93;;;;;;;;;;5059115;28;20086;-77
2023/08/28 02:45:56;;;;;;;11.15;8.88;;;;;;;;;;5062830;28;20048;-77
2023/08/28 02:48:23;;;;;;;12.70;9.27;;;;;;;;;;5057110;28;20049;-77
2023/08/28 02:50:50;;;;;;;15.07;10.23;;;;;;;;;;5075308;28;20094;-77
2023/08/28 02:53:16;;;;;;;12.57;8.88;;;;;;;;;;5065101;28;20560;-77
2023/08/28 02:55:42;;;;;;;14.05;10.40;;;;;;;;;;5055069;28;20052;-77
2023/08/28 02:58:08;;;;;;;16.15;10.98;;;;;;;;;;5071428;28;20040;-77
2023/08/28 03:00:35;;;;;;;12.82;10.23;;;;;;;;;;5072690;28;20150;-77
2023/08/28 03:03:01;;;;;;;15.45;11.07;;;;;;;;;;5063838;28;20040;-77
2023/08/28 03:05:28;;;;;;;14.07;11.85;;;;;;;;;;5055058;28;20385;-77
2023/08/28 03:07:54;;;;;;;15.95;11.32;;;;;;;;;;5057184;28;20053;-77
2023/08/28 03:10:20;;;;;;;15.02;11.27;;;;;;;;;;5066608;28;20037;-77
2023/08/28 03:12:46;;;;;;;15.13;11.05;;;;;;;;;;5053972;28;20033;-77
2023/08/28 03:15:12;;;;;;;13.43;10.15;;;;;;;;;;5045522;28;20046;-77
2023/08/28 03:17:38;;;;;;;14.68;10.73;;;;;;;;;;5042380;28;20387;-76
2023/08/28 03:20:09;;;;;;;16.35;12.02;;;;;;;;;;5053788;28;20049;-77
2023/08/28 03:22:35;;;;;;;13.93;12.43;;;;;;;;;;5053839;28;20099;-77
2023/08/28 03:25:01;;;;;;;13.93;11.85;;;;;;;;;;5052010;28;20116;-77
2023/08/28 03:27:27;;;;;;;16.00;11.30;;;;;;;;;;5057117;28;20040;-77
2023/08/28 03:29:53;;;;;;;15.65;12.45;;;;;;;;;;5050199;28;20486;-77
2023/08/28 03:32:19;;;;;;;15.52;12.98;;;;;;;;;;5055302;28;20103;-77
2023/08/28 03:34:45;;;;;;;13.07;11.68;;;;;;;;;;5053050;28;20041;-77
2023/08/28 03:37:11;;;;;;;14.15;11.77;;;;;;;;;;5058590;28;20069;-77
2023/08/28 03:39:37;;;;;;;14.40;10.38;;;;;;;;;;5049006;28;20048;-77
2023/08/28 03:42:04;;;;;;;14.75;12.20;;;;;;;;;;5057246;28;20069;-77
2023/08/28 03:44:30;;;;;;;16.15;11.25;;;;;;;;;;5058981;28;20033;-77
2023/08/28 03:46:56;;;;;;;15.25;12.25;;;;;;;;;;5050650;28;20041;-77
2023/08/28 03:49:22;;;;;;;16.77;13.00;;;;;;;;;;5046993;28;20045;-77
2023/08/28 03:51:48;;;;;;;13.00;11.18;;;;;;;;;;5051451;28;20048;-77
2023/08/28 03:54:14;;;;;;;12.90;10.73;;;;;;;;;;5054533;28;20049;-77
2023/08/28 03:56:40;;;;;;;15.75;11.90;;;;;;;;;;5053103;28;20509;-76
2023/08/28 03:59:07;;;;;;;13.85;11.93;;;;;;;;;;5043578;28;20041;-77
2023/08/28 04:01:34;;;;;;;15.18;12.18;;;;;;;;;;5050354;28;20107;-77
2023/08/28 04:04:00;;;;;;;14.23;11.25;;;;;;;;;;5054094;28;20041;-77
2023/08/28 04:06:26;;;;;;;15.45;11.68;;;;;;;;;;5071090;28;20502;-77
2023/08/28 04:08:52;;;;;;;14.52;11.38;;;;;;;;;;5050501;28;20056;-77
2023/08/28 04:11:18;;;;;;;15.23;11.30;;;;;;;;;;5053207;28;20403;-76
2023/08/28 04:13:44;;;;;;;11.93;10.48;;;;;;;;;;5048502;28;20053;-77
2023/08/28 04:16:10;;;;;;;12.65;11.35;;;;;;;;;;5046913;28;20061;-77
2023/08/28 04:18:36;;;;;;;13.52;11.48;;;;;;;;;;5052005;28;20044;-77
2023/08/28 04:21:03;;;;;;;13.20;11.50;;;;;;;;;;5065968;28;20080;-77
2023/08/28 04:23:30;;;;;;;15.02;12.27;;;;;;;;;;5056173;28;20559;-77
2023/08/28 04:25:56;;;;;;;13.98;11.52;;;;;;;;;;5034509;28;20408;-77
2023/08/28 04:28:22;;;;;;;17.85;12.68;;;;;;;;;;5048066;28;20105;-77
2023/08/28 04:30:48;;;;;;;14.23;12.57;;;;;;;;;;5071348;28;20563;-77
2023/08/28 04:33:14;;;;;;;13.82;11.35;;;;;;;;;;5056007;28;20041;-77
2023/08/28 04:35:41;;;;;;;15.73;11.95;;;;;;;;;;5052438;28;20395;-77
2023/08/28 04:38:07;;;;;;;15.50;11.77;;;;;;;;;;5063809;28;20423;-77
2023/08/28 04:40:33;;;;;;;15.00;11.27;;;;;;;;;;5053968;28;20047;-77
2023/08/28 04:42:59;;;;;;;15.10;11.48;;;;;;;;;;5052223;28;20098;-77
2023/08/28 04:45:26;;;;;;;13.43;11.25;;;;;;;;;;5052397;28;20060;-77
2023/08/28 04:47:52;;;;;;;14.93;11.20;;;;;;;;;;5053061;28;20053;-77
2023/08/28 04:50:18;;;;;;;15.18;12.38;;;;;;;;;;5052115;28;20116;-77
2023/08/28 04:52:44;;;;;;;11.93;9.05;;;;;;;;;;5053363;28;20052;-77
2023/08/28 04:55:10;;;;;;;14.02;10.73;;;;;;;;;;5055916;28;20370;-77
2023/08/28 04:57:36;;;;;;;15.60;12.07;;;;;;;;;;5051425;28;20518;-77
2023/08/28 05:00:02;;;;;;;14.50;11.70;;;;;;;;;;5051824;28;20045;-77
2023/08/28 05:02:28;;;;;;;13.93;12.43;;;;;;;;;;5052461;28;20498;-77
2023/08/28 05:04:55;;;;;;;14.00;10.75;;;;;;;;;;5060833;28;20053;-77
2023/08/28 05:07:22;;;;;;;15.23;12.18;;;;;;;;;;5042262;28;20045;-77
2023/08/28 05:09:48;;;;;;;16.30;12.15;;;;;;;;;;5051736;28;20041;-77
2023/08/28 05:12:15;;;;;;;14.68;12.32;;;;;;;;;;5052649;28;20427;-77
2023/08/28 05:14:41;;;;;;;15.27;11.23;;;;;;;;;;5031850;28;20348;-77
2023/08/28 05:17:07;;;;;;;15.90;12.80;;;;;;;;;;5049928;28;20045;-77
2023/08/28 05:19:33;;;;;;;14.80;12.25;;;;;;;;;;5050996;28;20044;-77
2023/08/28 05:21:59;;;;;;;14.32;12.30;;;;;;;;;;5050739;28;20094;-77
2023/08/28 05:24:25;;;;;;;15.98;11.05;;;;;;;;;;5020990;28;20055;-77
2023/08/28 05:26:51;;;;;;;14.48;12.63;;;;;;;;;;5052188;28;20045;-77
2023/08/28 05:29:17;;;;;;;13.68;10.90;;;;;;;;;;5047752;28;20033;-77
2023/08/28 05:31:43;;;;;;;11.35;10.07;;;;;;;;;;5045423;28;20041;-78
2023/08/28 05:34:09;;;;;;;10.77;9.30;;;;;;;;;;5048844;28;20126;-77
2023/08/28 05:36:35;;;;;;;11.02;9.10;;;;;;;;;;5049309;28;20040;-78
2023/08/28 05:39:01;;;;;;;10.20;8.13;;;;;;;;;;5051366;28;20182;-75
2023/08/28 05:41:27;;;;;;;10.57;8.05;;;;;;;;;;5050838;28;20048;-75
2023/08/28 05:43:53;;;;;;;8.88;7.22;;;;;;;;;;5047687;28;20398;-76
2023/08/28 05:46:19;;;;;;;11.30;7.70;;;;;;;;;;5048672;28;20045;-77
2023/08/28 05:48:45;;;;;;;10.90;6.60;;;;;;;;;;5047257;28;20105;-77
2023/08/28 05:51:12;;;;;;;10.80;7.05;;;;;;;;;;5050058;28;20132;-77
2023/08/28 05:53:38;;;;;;;10.20;7.07;;;;;;;;;;5047873;28;20041;-77
2023/08/28 05:56:04;;;;;;;9.18;7.00;;;;;;;;;;5041358;28;20080;-77
2023/08/28 05:58:30;;;;;;;9.45;6.20;;;;;;;;;;5048562;28;20486;-77
2023/08/28 06:00:56;;;;;;;10.25;6.75;;;;;;;;;;5052098;28;20075;-77
2023/08/28 06:03:22;;;;;;;7.70;5.82;;;;;;;;;;5051995;28;20045;-76
2023/08/28 06:05:48;;;;;;;9.60;6.07;;;;;;;;;;5049356;28;20056;-76
2023/08/28 06:08:16;;;;;;;7.88;5.82;;;;;;;;;;5051614;28;20139;-76
2023/08/28 06:10:42;;;;;;;8.45;6.22;;;;;;;;;;5051912;28;20494;-75
2023/08/28 06:13:08;;;;;;;7.38;6.00;;;;;;;;;;5051373;28;20045;-75
2023/08/28 06:15:35;;;;;;;7.63;6.05;;;;;;;;;;5040484;28;20060;-76
2023/08/28 06:18:01;;;;;;;8.45;5.72;;;;;;;;;;5027496;28;20053;-76
2023/08/28 06:20:27;;;;;;;7.57;5.63;;;;;;;;;;5048591;28;20045;-76
2023/08/28 06:22:53;;;;;;;8.05;5.22;;;;;;;;;;5042963;28;20041;-76
2023/08/28 06:25:19;;;;;;;8.50;5.78;;;;;;;;;;5046910;28;20071;-77
2023/08/28 06:27:45;;;;;;;7.20;5.20;;;;;;;;;;5051706;28;20049;-76
2023/08/28 06:30:11;;;;;;;9.32;5.40;;;;;;;;;;5069026;28;20093;-76
2023/08/28 06:32:37;;;;;;;7.90;4.78;;;;;;;;;;5049153;28;20044;-76
2023/08/28 06:35:04;;;;;;;7.00;4.85;;;;;;;;;;5050471;28;20086;-76
2023/08/28 06:37:30;;;;;;;9.75;4.47;;;;;;;;;;5059890;28;20052;-76
2023/08/28 06:39:56;;;;;;;6.93;4.43;;;;;;;;;;5054293;28;20131;-76
2023/08/28 06:42:22;;;;;;;5.97;3.80;;;;;;;;;;5054702;28;20568;-75
2023/08/28 06:44:48;;;;;;;6.65;4.88;;;;;;;;;;5051654;28;20045;-76
2023/08/28 06:47:14;;;;;;;6.95;3.78;;;;;;;;;;5050250;28;20128;-76
2023/08/28 06:49:41;;;;;;;7.60;4.38;;;;;;;;;;5051998;28;20049;-76
2023/08/28 06:52:08;;;;;;;6.30;4.10;;;;;;;;;;5053468;28;20115;-76
2023/08/28 06:54:34;;;;;;;7.68;3.85;;;;;;;;;;5036961;28;20105;-76
2023/08/28 06:57:01;;;;;;;7.85;3.60;;;;;;;;;;5065328;28;20086;-76
2023/08/28 06:59:27;;;;;;;7.20;3.22;;;;;;;;;;5064047;28;20106;-76
2023/08/28 07:01:53;;;;;;;6.18;3.20;;;;;;;;;;5053535;28;20682;-77
2023/08/28 07:04:19;;;;;;;6.60;3.40;;;;;;;;;;5054492;28;20451;-77
2023/08/28 07:06:45;;;;;;;7.13;3.30;;;;;;;;;;5055794;28;20065;-77
2023/08/28 07:09:11;;;;;;;6.10;3.38;;;;;;;;;;5055245;28;20057;-76
2023/08/28 07:11:38;;;;;;;7.30;3.35;;;;;;;;;;5054808;28;20487;-76
2023/08/28 07:14:05;;;;;;;5.07;3.05;;;;;;;;;;5054293;28;20102;-76
2023/08/28 07:16:32;;;;;;;7.13;3.17;;;;;;;;;;5054888;28;20123;-76
2023/08/28 07:18:58;;;;;;;7.45;3.38;;;;;;;;;;5055131;28;20049;-76
2023/08/28 07:21:24;;;;;;;6.60;3.38;;;;;;;;;;5027271;28;20122;-76
2023/08/28 07:23:51;;;;;;;7.78;3.22;;;;;;;;;;5063825;28;20045;-76
2023/08/28 07:26:17;;;;;;;5.15;2.63;;;;;;;;;;5059213;28;20052;-76
2023/08/28 07:28:43;;;;;;;6.10;2.72;;;;;;;;;;5071008;28;20057;-77
2023/08/28 07:31:10;;;;;;;6.20;2.47;;;;;;;;;;5049673;28;20450;-76
2023/08/28 07:33:37;;;;;;;6.38;2.67;;;;;;;;;;5054762;28;20064;-76
2023/08/28 07:36:03;;;;;;;5.72;2.60;;;;;;;;;;5054274;28;20067;-76
2023/08/28 07:38:29;;;;;;;7.28;2.67;;;;;;;;;;5040238;28;20037;-76
2023/08/28 07:40:55;;;;;;;5.75;2.60;;;;;;;;;;5029486;28;20439;-77
2023/08/28 07:43:21;;;;;;;7.15;2.50;;;;;;;;;;5054600;28;20047;-77
2023/08/28 07:45:47;;;;;;;6.57;2.33;;;;;;;;;;5053779;28;20071;-76
2023/08/28 07:48:14;;;;;;;4.60;2.10;;;;;;;;;;5054500;28;20055;-77
2023/08/28 07:50:40;;;;;;;6.75;2.13;;;;;;;;;;5046771;28;20391;-76
2023/08/28 07:53:06;;;;;;;4.78;1.92;;;;;;;;;;5044183;28;20110;-76
2023/08/28 07:55:32;;;;;;;5.35;2.22;;;;;;;;;;5053902;28;20056;-77
2023/08/28 07:57:59;;;;;;;4.90;1.80;;;;;;;;;;5036643;28;20049;-77
2023/08/28 08:00:25;;;;;;;5.22;1.83;;;;;;;;;;5060628;28;20498;-76
2023/08/28 08:02:51;;;;;;;5.07;1.67;;;;;;;;;;5039046;28;20060;-77
2023/08/28 08:05:18;;;;;;;5.05;1.70;;;;;;;;;;5054019;28;20459;-76
2023/08/28 08:07:44;;;;;;;6.18;1.73;;;;;;;;;;5046931;28;20095;-78
2023/08/28 08:10:11;;;;;;;3.95;1.60;;;;;;;;;;5051843;28;20044;-76
2023/08/28 08:12:38;;;;;;;4.38;1.70;;;;;;;;;;5053404;28;20526;-77
2023/08/28 08:15:06;;;;;;;6.03;1.35;;;;;;;;;;5047863;28;20094;-77
2023/08/28 08:17:32;;;;;;;5.18;1.60;;;;;;;;;;5049216;28;20049;-70
2023/08/28 08:19:58;;;;;;;9.32;1.70;;;;;;;;;;5052069;28;20037;-70
2023/08/28 08:22:24;;;;;;;6.82;1.65;;;;;;;;;;5043742;28;20088;-71
2023/08/28 08:24:51;;;;;;;4.70;1.52;;;;;;;;;;5053356;28;20132;-71
2023/08/28 08:27:17;;;;;;;6.30;1.50;;;;;;;;;;5056240;28;20041;-72
2023/08/28 08:29:43;;;;;;;5.00;1.33;;;;;;;;;;5051331;28;20495;-70
2023/08/28 08:32:09;;;;;;;6.18;1.50;;;;;;;;;;5053046;28;20546;-71
2023/08/28 08:34:36;;;;;;;5.75;1.60;;;;;;;;;;5053436;28;20123;-70
2023/08/28 08:37:02;;;;;;;6.60;1.30;;;;;;;;;;5044978;28;20128;-70
2023/08/28 08:39:28;;;;;;;5.60;1.30;;;;;;;;;;5051060;28;20067;-71
2023/08/28 08:41:54;;;;;;;5.35;1.02;;;;;;;;;;5053850;28;20056;-71
2023/08/28 08:44:20;;;;;;;7.25;1.10;;;;;;;;;;5057995;28;20072;-69
2023/08/28 08:46:49;;;;;;;4.80;1.20;;;;;;;;;;5051939;28;20418;-70
2023/08/28 08:49:17;;;;;;;3.50;0.90;;;;;;;;;;5052102;28;20053;-74
2023/08/28 08:51:43;;;;;;;4.63;1.08;;;;;;;;;;5051161;28;20052;-70
2023/08/28 08:54:19;;;;;;;4.70;0.98;;;;;;;;;;5028334;28;20436;-70
2023/08/28 08:56:46;;;;;;;5.25;1.02;;;;;;;;;;5052090;28;20505;-69
2023/08/28 08:59:12;;;;;;;5.22;1.10;;;;;;;;;;5050936;28;20445;-70
2023/08/28 09:01:38;;;;;;;3.63;0.70;;;;;;;;;;5051734;28;20041;-70
2023/08/28 09:04:05;;;;;;;3.72;0.85;;;;;;;;;;5051918;28;20406;-70
2023/08/28 09:06:34;;;;;;;4.15;1.00;;;;;;;;;;5049458;28;20045;-70
2023/08/28 09:09:00;;;;;;;5.13;1.08;;;;;;;;;;5047878;28;20045;-70
2023/08/28 09:11:26;;;;;;;3.53;1.10;;;;;;;;;;5043848;28;20049;-70
2023/08/28 09:13:52;;;;;;;3.58;0.70;;;;;;;;;;5036652;28;20041;-70
2023/08/28 09:16:19;;;;;;;4.13;0.80;;;;;;;;;;5049395;28;20053;-70
2023/08/28 09:18:45;;;;;;;2.53;0.80;;;;;;;;;;5051478;28;20465;-70
2023/08/28 09:21:12;;;;;;;4.55;0.80;;;;;;;;;;5051227;28;20481;-70
2023/08/28 09:23:48;;;;;;;3.97;0.90;;;;;;;;;;5052454;28;20052;-70
2023/08/28 09:26:15;;;;;;;5.38;0.90;;;;;;;;;;5051678;28;20080;-70
2023/08/28 09:28:42;;;;;;;2.45;0.60;;;;;;;;;;5049115;28;20334;-71
2023/08/28 09:31:08;;;;;;;4.57;0.90;;;;;;;;;;5050982;28;20091;-70
2023/08/28 09:33:44;;;;;;;4.15;0.98;;;;;;;;;;5032863;28;20128;-71
2023/08/28 09:36:18;;;;;;;4.35;0.70;;;;;;;;;;5050506;28;20044;-70
2023/08/28 09:38:44;;;;;;;2.53;0.73;;;;;;;;;;5051568;28;20052;-70
2023/08/28 09:41:11;;;;;;;4.22;0.90;;;;;;;;;;5052737;28;20053;-71
2023/08/28 09:43:37;;;;;;;2.88;0.73;;;;;;;;;;5052283;28;20186;-70
2023/08/28 09:46:04;;;;;;;6.00;0.90;;;;;;;;;;5072697;28;20052;-70
2023/08/28 09:48:34;;;;;;;3.17;0.80;;;;;;;;;;5069273;28;20056;-70
2023/08/28 09:51:04;;;;;;;4.18;0.80;;;;;;;;;;5052464;28;20138;-70
2023/08/28 09:53:30;;;;;;;3.03;0.70;;;;;;;;;;5051670;28;20061;-70
2023/08/28 09:55:57;;;;;;;4.72;1.10;;;;;;;;;;5051062;28;20052;-70
2023/08/28 09:58:27;;;;;;;2.28;0.75;;;;;;;;;;5053270;28;20037;-70
2023/08/28 10:00:55;;;;;;;4.68;1.00;;;;;;;;;;5053222;28;20045;-70
2023/08/28 10:03:22;;;;;;;3.63;0.80;;;;;;;;;;5052652;28;20096;-70
2023/08/28 10:05:48;;;;;;;3.65;0.80;;;;;;;;;;5048234;28;20071;-70
2023/08/28 10:08:16;;;;;;;3.10;0.70;;;;;;;;;;5051535;28;20064;-70
2023/08/28 10:10:45;;;;;;;4.85;0.60;;;;;;;;;;5056150;28;20045;-70
2023/08/28 10:13:13;;;;;;;4.03;0.98;;;;;;;;;;5050615;28;20120;-70
2023/08/28 10:15:58;;;;;;;3.35;0.70;;;;;;;;;;5044031;28;20057;-68
2023/08/28 10:18:35;;;;;;;4.20;0.80;;;;;;;;;;5051356;28;20049;-70
2023/08/28 10:21:01;;;;;;;2.45;0.52;;;;;;;;;;5050444;28;20063;-70
2023/08/28 10:23:28;;;;;;;4.30;0.90;;;;;;;;;;5049878;28;20052;-70
2023/08/28 10:25:55;;;;;;;4.78;0.88;;;;;;;;;;5048647;28;20059;-70
2023/08/28 10:28:22;;;;;;;3.78;0.85;;;;;;;;;;5049902;28;20123;-70
2023/08/28 10:30:51;;;;;;;2.22;0.70;;;;;;;;;;5058903;28;20041;-72
2023/08/28 10:33:20;;;;;;;4.03;0.80;;;;;;;;;;5050558;28;20499;-71
2023/08/28 10:35:48;;;;;;;4.18;0.98;;;;;;;;;;5051832;28;20053;-70
2023/08/28 10:38:14;;;;;;;2.90;0.73;;;;;;;;;;5051436;28;20093;-71
2023/08/28 10:40:40;;;;;;;3.65;0.80;;;;;;;;;;5055864;28;20045;-70
2023/08/28 10:43:06;;;;;;;4.43;0.80;;;;;;;;;;5055316;28;20438;-70
2023/08/28 10:45:36;;;;;;;3.97;0.88;;;;;;;;;;5055823;28;20045;-71
2023/08/28 10:48:02;;;;;;;3.00;0.80;;;;;;;;;;5037124;28;20048;-71
2023/08/28 10:50:34;;;;;;;4.50;0.80;;;;;;;;;;5055563;28;20041;-70
2023/08/28 10:53:00;;;;;;;4.53;0.95;;;;;;;;;;5054995;28;20045;-71
2023/08/28 10:55:27;;;;;;;2.75;0.63;;;;;;;;;;5053747;28;20045;-71
2023/08/28 10:57:53;;;;;;;2.10;0.50;;;;;;;;;;5053658;28;20049;-73
2023/08/28 11:00:20;;;;;;;4.25;0.52;;;;;;;;;;5055681;28;20041;-70
2023/08/28 11:03:06;;;;;;;2.60;0.55;;;;;;;;;;5047127;28;20120;-70
2023/08/28 11:05:33;;;;;;;3.25;0.65;;;;;;;;;;5040357;28;20072;-71
2023/08/28 11:08:06;;;;;;;5.68;0.70;;;;;;;;;;5059075;28;20076;-71
2023/08/28 11:10:32;;;;;;;4.18;1.52;;;;;;;;;;5052757;28;20072;-71
2023/08/28 11:13:08;;;;;;;4.00;0.80;;;;;;;;;;5051615;28;20043;-71
2023/08/28 11:15:35;;;;;;;3.95;0.88;;;;;;;;;;5050358;28;20079;-72
2023/08/28 11:18:18;;;;;;;2.95;0.60;;;;;;;;;;5053487;28;20080;-71
2023/08/28 11:20:48;;;;;;;3.67;0.70;;;;;;;;;;5053942;28;20486;-71
2023/08/28 11:23:35;;;;;;;3.42;0.80;;;;;;;;;;5053747;28;20048;-71
2023/08/28 11:26:26;;;;;;;4.15;0.80;;;;;;;;;;5054254;28;20136;-70
2023/08/28 11:28:53;;;;;;;5.55;1.00;;;;;;;;;;5038023;28;20044;-71
2023/08/28 11:31:19;;;;;;;3.90;0.70;;;;;;;;;;5047729;28;20098;-71
2023/08/28 11:33:49;;;;;;;3.88;0.77;;;;;;;;;;5051857;28;20049;-71
2023/08/28 11:36:17;;;;;;;2.47;0.77;;;;;;;;;;5051571;28;20045;-72
2023/08/28 11:38:43;;;;;;;3.72;0.70;;;;;;;;;;5035069;28;20040;-71
2023/08/28 11:41:10;;;;;;;3.13;0.70;;;;;;;;;;5052949;28;20510;-71
2023/08/28 11:43:37;;;;;;;3.20;0.80;;;;;;;;;;5054250;28;20055;-71
2023/08/28 11:46:04;;;;;;;3.55;0.70;;;;;;;;;;5053961;28;20368;-71
2023/08/28 11:48:48;;;;;;;2.97;0.75;;;;;;;;;;5053329;28;20398;-72
2023/08/28 11:51:14;;;;;;;2.17;0.70;;;;;;;;;;5019362;28;20052;-71
2023/08/28 11:53:43;;;;;;;3.53;0.80;;;;;;;;;;5074770;28;20055;-71
2023/08/28 11:56:12;;;;;;;2.75;0.68;;;;;;;;;;5049623;28;20052;-71
2023/08/28 11:58:39;;;;;;;2.92;0.77;;;;;;;;;;5054282;28;20048;-70
2023/08/28 12:01:08;;;;;;;2.75;0.70;;;;;;;;;;5047056;28;20103;-71
2023/08/28 12:03:34;;;;;;;2.58;0.60;;;;;;;;;;5034669;28;20057;-71
2023/08/28 12:06:07;;;;;;;4.63;1.00;;;;;;;;;;5040253;28;20522;-71
2023/08/28 12:08:35;;;;;;;3.33;0.70;;;;;;;;;;5054288;28;20415;-71
2023/08/28 12:11:01;;;;;;;4.70;0.95;;;;;;;;;;5053242;28;20057;-71
2023/08/28 12:13:27;;;;;;;3.00;0.70;;;;;;;;;;5054178;28;20040;-71
2023/08/28 12:16:05;;;;;;;3.53;0.80;;;;;;;;;;5053957;28;20048;-71
2023/08/28 12:18:42;;;;;;;8.20;2.03;;;;;;;;;;5054158;28;20057;-71
2023/08/28 12:21:08;;;;;;;2.47;0.70;;;;;;;;;;5052711;28;20048;-72
2023/08/28 12:23:44;;;;;;;4.45;0.77;;;;;;;;;;5038730;28;20049;-71
2023/08/28 12:26:10;;;;;;;3.63;0.80;;;;;;;;;;5034284;28;20099;-71
2023/08/28 12:28:36;;;;;;;2.13;0.70;;;;;;;;;;5034113;28;20384;-71
2023/08/28 12:31:02;;;;;;;3.58;0.93;;;;;;;;;;5034243;28;20049;-71
2023/08/28 12:33:28;;;;;;;3.33;0.80;;;;;;;;;;5034364;28;20049;-71
2023/08/28 12:35:55;;;;;;;2.28;0.63;;;;;;;;;;5034108;28;20480;-71
2023/08/28 12:38:21;;;;;;;2.88;0.80;;;;;;;;;;5048376;28;20115;-71
2023/08/28 12:40:50;;;;;;;2.08;0.60;;;;;;;;;;5034834;28;20047;-71
2023/08/28 12:43:17;;;;;;;2.10;0.68;;;;;;;;;;5052123;28;20087;-71
2023/08/28 12:45:43;;;;;;;3.88;0.80;;;;;;;;;;5051656;28;20033;-71
2023/08/28 12:48:09;;;;;;;3.00;0.70;;;;;;;;;;5049869;28;20037;-71
2023/08/28 12:50:36;;;;;;;1.58;0.60;;;;;;;;;;5049613;28;20037;-71
2023/08/28 12:53:04;;;;;;;2.83;0.73;;;;;;;;;;5032580;28;20167;-72
2023/08/28 12:55:30;;;;;;;2.53;0.80;;;;;;;;;;5049742;28;20045;-72
2023/08/28 12:57:56;;;;;;;3.47;0.77;;;;;;;;;;5052347;28;20041;-70
2023/08/28 13:00:24;;;;;;;2.03;0.80;;;;;;;;;;5053715;28;20408;-71
2023/08/28 13:02:51;;;;;;;3.30;0.68;;;;;;;;;;5051930;28;20045;-71
2023/08/28 13:05:17;;;;;;;3.42;0.60;;;;;;;;;;5053243;28;20049;-71
2023/08/28 13:07:43;;;;;;;2.67;0.60;;;;;;;;;;5052547;28;20061;-71
2023/08/28 13:10:09;;;;;;;2.58;0.60;;;;;;;;;;5053159;28;20045;-71
2023/08/28 13:12:35;;;;;;;4.03;0.50;;;;;;;;;;5053291;28;20052;-71
2023/08/28 13:15:04;;;;;;;3.83;0.75;;;;;;;;;;5053212;28;20141;-70
2023/08/28 13:17:30;;;;;;;2.63;0.60;;;;;;;;;;5049798;28;20068;-71
2023/08/28 13:19:56;;;;;;;1.75;0.60;;;;;;;;;;5052101;28;20410;-71
2023/08/28 13:22:22;;;;;;;3.10;0.77;;;;;;;;;;5034244;28;20055;-71
2023/08/28 13:24:49;;;;;;;3.67;0.65;;;;;;;;;;5051181;28;20037;-71
2023/08/28 13:27:15;;;;;;;3.45;0.70;;;;;;;;;;5032091;28;20499;-72
2023/08/28 13:29:41;;;;;;;3.10;0.60;;;;;;;;;;5046760;28;20045;-71
2023/08/28 13:32:07;;;;;;;2.53;0.68;;;;;;;;;;5051587;28;20095;-71
2023/08/28 13:34:33;;;;;;;2.67;0.70;;;;;;;;;;5051631;28;20049;-71
2023/08/28 13:37:00;;;;;;;3.45;0.70;;;;;;;;;;5051984;28;20071;-71
2023/08/28 13:39:26;;;;;;;5.35;0.90;;;;;;;;;;5048801;28;20041;-71
2023/08/28 13:41:52;;;;;;;1.77;0.77;;;;;;;;;;5051661;28;20499;-71
2023/08/28 13:44:18;;;;;;;4.05;0.80;;;;;;;;;;5050650;28;20052;-70
2023/08/28 13:46:44;;;;;;;6.18;1.05;;;;;;;;;;5047521;28;20407;-71
2023/08/28 13:49:10;;;;;;;3.13;0.80;;;;;;;;;;5050301;28;20045;-71
2023/08/28 13:51:37;;;;;;;3.35;1.00;;;;;;;;;;5049499;28;20040;-71
2023/08/28 13:54:03;;;;;;;2.90;0.70;;;;;;;;;;5051677;28;20048;-71
2023/08/28 13:56:29;;;;;;;3.83;0.90;;;;;;;;;;5051804;28;20036;-71
2023/08/28 13:58:55;;;;;;;4.28;0.80;;;;;;;;;;5032827;28;20505;-71
2023/08/28 14:01:21;;;;;;;1.90;0.70;;;;;;;;;;5047523;28;20069;-71
2023/08/28 14:03:49;;;;;;;2.00;0.60;;;;;;;;;;5050887;28;20045;-71
2023/08/28 14:06:15;;;;;;;2.35;0.80;;;;;;;;;;5048930;28;20084;-71
2023/08/28 14:08:41;;;;;;;4.60;1.00;;;;;;;;;;5050591;28;20088;-71
2023/08/28 14:11:08;;;;;;;3.55;1.00;;;;;;;;;;5050411;28;20034;-71
2023/08/28 14:13:35;;;;;;;4.03;0.90;;;;;;;;;;5051673;28;20041;-71
2023/08/28 14:16:03;;;;;;;3.67;1.23;;;;;;;;;;5051256;28;20049;-71
2023/08/28 14:18:29;;;;;;;3.03;0.90;;;;;;;;;;5051200;28;20116;-71
2023/08/28 14:20:55;;;;;;;2.90;0.90;;;;;;;;;;5031887;28;20504;-72
2023/08/28 14:23:21;;;;;;;2.70;0.60;;;;;;;;;;5050416;28;20037;-71
2023/08/28 14:25:48;;;;;;;3.78;0.82;;;;;;;;;;5051945;28;20056;-71
2023/08/28 14:28:14;;;;;;;2.10;0.70;;;;;;;;;;5049803;28;20045;-71
2023/08/28 14:30:40;;;;;;;2.60;0.80;;;;;;;;;;5049966;28;20029;-71
2023/08/28 14:33:06;;;;;;;3.08;0.60;;;;;;;;;;5050549;28;20059;-71
2023/08/28 14:35:32;;;;;;;3.97;0.93;;;;;;;;;;5013840;28;20094;-77